createdAt,value
2018-11-14T00:01:26.959Z,100535.55
2018-11-14T00:03:55.421Z,100534.17
2018-11-14T00:06:23.888Z,100539.45
2018-11-14T00:08:52.682Z,100538.61
2018-11-14T00:11:21.128Z,100435.05
2018-11-14T00:13:50.213Z,100535.02
2018-11-14T00:16:18.727Z,100511.67
2018-11-14T00:18:47.255Z,100538.76
2018-11-14T00:21:15.838Z,100535.77
2018-11-14T00:23:44.294Z,100540.24
2018-11-14T00:26:12.745Z,100545.67
2018-11-14T00:28:41.291Z,100541.50
2018-11-14T00:31:09.750Z,100548.44
2018-11-14T00:33:38.205Z,100545.45
2018-11-14T00:36:06.781Z,100550.11
2018-11-14T00:38:35.631Z,100548.80
2018-11-14T00:41:04.141Z,100550.14
2018-11-14T00:43:32.623Z,100543.20
2018-11-14T00:46:01.113Z,100538.37
2018-11-14T00:48:30.228Z,100544.38
2018-11-14T00:50:58.747Z,100532.59
2018-11-14T00:53:27.272Z,100531.63
2018-11-14T00:55:55.726Z,100526.39
2018-11-14T00:58:24.302Z,100529.03
2018-11-14T01:00:52.754Z,100542.20
2018-11-14T01:03:21.454Z,100545.50
2018-11-14T01:05:49.940Z,100541.48
2018-11-14T01:08:18.495Z,100538.52
2018-11-14T01:10:46.963Z,100536.47
2018-11-14T01:13:15.494Z,100538.69
2018-11-14T01:15:44.633Z,100545.70
2018-11-14T01:18:13.152Z,100548.61
2018-11-14T01:20:41.630Z,100551.15
2018-11-14T01:23:10.168Z,100548.91
2018-11-14T01:25:38.645Z,100543.34
2018-11-14T01:28:07.132Z,100540.83
2018-11-14T01:30:35.615Z,100547.30
2018-11-14T01:33:04.125Z,100549.12
2018-11-14T01:35:32.559Z,100551.92
2018-11-14T01:38:01.527Z,100548.99
2018-11-14T01:40:30.003Z,100551.03
2018-11-14T01:42:58.622Z,100562.16
2018-11-14T01:45:27.100Z,100560.80
2018-11-14T01:47:55.646Z,100557.73
2018-11-14T01:50:24.202Z,100559.37
2018-11-14T01:54:17.094Z,100549.23
2018-11-14T01:56:45.581Z,100555.98
2018-11-14T01:59:14.047Z,100548.78
2018-11-14T02:01:42.563Z,100548.18
2018-11-14T02:04:11.048Z,100538.36
2018-11-14T02:06:39.518Z,100541.76
2018-11-14T02:09:08.900Z,100537.50
2018-11-14T02:11:37.435Z,100540.08
2018-11-14T02:14:06.410Z,100538.94
2018-11-14T02:16:34.927Z,100540.36
2018-11-14T02:19:03.380Z,100534.48
2018-11-14T02:21:31.954Z,100529.75
2018-11-14T02:24:00.488Z,100527.98
2018-11-14T02:26:29.311Z,100518.05
2018-11-14T02:28:57.827Z,100522.41
2018-11-14T02:31:26.307Z,100513.42
2018-11-14T02:33:54.773Z,100520.45
2018-11-14T02:36:23.296Z,100522.93
2018-11-14T02:38:51.859Z,100519.54
2018-11-14T02:41:20.316Z,100517.15
2018-11-14T02:43:49.868Z,100509.44
2018-11-14T02:46:18.334Z,100512.87
2018-11-14T02:48:46.781Z,100502.00
2018-11-14T02:51:23.822Z,100505.14
2018-11-14T02:53:52.409Z,100499.48
2018-11-14T02:56:21.103Z,100491.98
2018-11-14T02:58:49.619Z,100490.14
2018-11-14T03:01:18.095Z,100491.56
2018-11-14T03:03:46.554Z,100491.20
2018-11-14T03:06:16.304Z,100488.89
2018-11-14T03:08:44.786Z,100489.83
2018-11-14T03:11:13.260Z,100482.22
2018-11-14T03:13:41.804Z,100479.49
2018-11-14T03:16:11.167Z,100475.72
2018-11-14T03:18:40.427Z,100475.86
2018-11-14T03:21:08.994Z,100477.47
2018-11-14T03:23:37.472Z,100480.67
2018-11-14T03:26:05.958Z,100474.61
2018-11-14T03:28:34.474Z,100471.72
2018-11-14T03:31:02.967Z,100471.66
2018-11-14T03:33:31.456Z,100478.92
2018-11-14T03:36:06.046Z,100483.90
2018-11-14T03:38:34.638Z,100473.70
2018-11-14T03:41:03.156Z,100479.64
2018-11-14T03:43:31.649Z,100477.41
2018-11-14T03:46:00.125Z,100475.66
2018-11-14T03:48:28.654Z,100475.80
2018-11-14T03:50:58.023Z,100483.16
2018-11-14T03:53:26.543Z,100484.48
2018-11-14T03:55:55.035Z,100487.58
2018-11-14T03:58:23.541Z,100482.33
2018-11-14T04:00:52.068Z,100483.83
2018-11-14T04:03:20.568Z,100488.36
2018-11-14T04:05:49.018Z,100488.55
2018-11-14T04:08:19.003Z,100485.17
2018-11-14T04:10:47.533Z,100481.41
2018-11-14T04:13:16.202Z,100477.84
2018-11-14T04:15:45.299Z,100482.48
2018-11-14T04:18:13.820Z,100476.61
2018-11-14T04:20:42.214Z,100474.33
2018-11-14T04:23:10.654Z,100468.11
2018-11-14T04:25:39.139Z,100471.34
2018-11-14T04:28:08.253Z,100468.97
2018-11-14T04:30:36.787Z,100467.43
2018-11-14T04:33:05.802Z,100463.58
2018-11-14T04:35:34.308Z,100462.70
2018-11-14T04:38:02.792Z,100464.22
2018-11-14T04:40:31.284Z,100457.67
2018-11-14T04:42:59.867Z,100464.37
2018-11-14T04:45:28.393Z,100457.21
2018-11-14T04:47:56.974Z,100465.41
2018-11-14T04:50:26.696Z,100464.09
2018-11-14T04:52:55.522Z,100468.04
2018-11-14T04:55:25.024Z,100470.81
2018-11-14T04:57:54.259Z,100467.62
2018-11-14T05:00:24.056Z,100469.05
2018-11-14T05:02:52.781Z,100464.63
2018-11-14T05:05:23.046Z,100469.19
2018-11-14T05:07:51.489Z,100468.13
2018-11-14T05:10:21.948Z,100463.23
2018-11-14T05:12:51.682Z,100458.23
2018-11-14T05:15:21.439Z,100451.89
2018-11-14T05:17:51.277Z,100449.12
2018-11-14T05:20:20.685Z,100440.02
2018-11-14T05:22:49.799Z,100440.80
2018-11-14T05:25:18.448Z,100429.76
2018-11-14T05:27:46.919Z,100425.59
2018-11-14T05:30:18.024Z,100417.28
2018-11-14T05:32:47.361Z,100417.53
2018-11-14T05:35:16.264Z,100422.59
2018-11-14T05:37:44.908Z,100429.83
2018-11-14T05:40:16.760Z,100425.36
2018-11-14T05:42:46.022Z,100435.32
2018-11-14T05:45:16.530Z,100438.56
2018-11-14T05:47:46.187Z,100439.48
2018-11-14T05:50:16.126Z,100446.09
2018-11-14T05:52:45.110Z,100447.41
2018-11-14T05:55:14.723Z,100441.84
2018-11-14T05:57:43.199Z,100430.65
2018-11-14T06:00:15.746Z,100423.27
2018-11-14T06:02:44.906Z,100426.38
2018-11-14T06:05:13.453Z,100424.80
2018-11-14T06:07:41.942Z,100436.86
2018-11-14T06:10:12.151Z,100430.53
2018-11-14T06:12:41.885Z,100431.53
2018-11-14T06:15:13.919Z,100432.45
2018-11-14T06:17:43.651Z,100430.61
2018-11-14T06:20:14.547Z,100441.64
2018-11-14T06:22:43.885Z,100441.27
2018-11-14T06:25:20.668Z,100448.93
2018-11-14T06:27:51.397Z,100444.95
2018-11-14T06:30:20.176Z,100432.49
2018-11-14T06:32:49.431Z,100429.95
2018-11-14T06:35:18.435Z,100423.56
2018-11-14T06:37:47.737Z,100430.79
2018-11-14T06:40:18.873Z,100431.69
2018-11-14T06:42:47.863Z,100428.80
2018-11-14T06:45:19.621Z,100422.67
2018-11-14T06:47:49.962Z,100425.53
2018-11-14T06:50:18.453Z,100426.97
2018-11-14T06:52:48.252Z,100428.17
2018-11-14T06:55:17.568Z,100432.50
2018-11-14T06:57:46.080Z,100428.77
2018-11-14T07:00:16.708Z,100427.03
2018-11-14T07:02:46.224Z,100426.64
2018-11-14T07:05:16.127Z,100420.05
2018-11-14T07:07:44.913Z,100425.33
2018-11-14T07:10:15.843Z,100423.16
2018-11-14T07:12:44.549Z,100426.67
2018-11-14T07:15:17.806Z,100416.50
2018-11-14T07:17:48.243Z,100412.90
2018-11-14T07:20:20.592Z,100418.70
2018-11-14T07:22:49.410Z,100417.75
2018-11-14T07:25:17.964Z,100415.61
2018-11-14T07:27:46.923Z,100411.92
2018-11-14T07:30:17.558Z,100405.84
2018-11-14T07:32:47.501Z,100405.38
2018-11-14T07:35:16.612Z,100404.32
2018-11-14T07:38:25.893Z,100399.23
2018-11-14T07:40:54.318Z,100402.43
2018-11-14T07:43:22.778Z,100404.58
2018-11-14T07:45:51.283Z,100400.48
2018-11-14T07:48:20.051Z,100399.70
2018-11-14T07:50:50.133Z,100394.98
2018-11-14T07:53:19.379Z,100401.34
2018-11-14T07:55:48.215Z,100402.70
2018-11-14T07:58:16.736Z,100409.77
2018-11-14T08:00:45.210Z,100406.87
2018-11-14T08:03:13.739Z,100405.97
2018-11-14T08:05:42.236Z,100402.23
2018-11-14T08:08:10.731Z,100398.16
2018-11-14T08:10:39.194Z,100408.16
2018-11-14T08:13:08.201Z,100392.95
2018-11-14T08:15:36.735Z,100384.47
2018-11-14T08:18:05.574Z,100388.38
2018-11-14T08:20:34.048Z,100380.36
2018-11-14T08:23:04.314Z,100381.22
2018-11-14T08:25:32.820Z,100378.09
2018-11-14T08:28:01.316Z,100391.03
2018-11-14T08:30:29.883Z,100386.06
2018-11-14T08:32:58.380Z,100402.41
2018-11-14T08:35:26.830Z,100406.30
2018-11-14T08:37:55.289Z,100408.63
2018-11-14T08:40:23.717Z,100401.26
2018-11-14T08:42:52.204Z,100404.59
2018-11-14T08:45:20.696Z,100399.08
2018-11-14T08:47:51.372Z,100392.35
2018-11-14T08:50:20.784Z,100392.17
2018-11-14T08:52:49.317Z,100390.00
2018-11-14T08:55:19.271Z,100385.87
2018-11-14T08:57:48.198Z,100380.06
2018-11-14T09:00:21.302Z,100379.68
2018-11-14T09:02:50.321Z,100379.66
2018-11-14T09:05:18.992Z,100376.00
2018-11-14T09:07:48.164Z,100379.44
2018-11-14T09:10:19.614Z,100378.33
2018-11-14T09:12:48.645Z,100323.67
2018-11-14T09:15:19.414Z,100383.48
2018-11-14T09:17:48.239Z,100381.69
2018-11-14T09:20:25.396Z,100380.63
2018-11-14T09:22:53.894Z,100379.33
2018-11-14T09:25:29.440Z,100377.98
2018-11-14T09:27:58.478Z,100381.88
2018-11-14T09:30:27.369Z,100377.69
2018-11-14T09:32:56.304Z,100372.84
2018-11-14T09:35:26.460Z,100387.30
2018-11-14T09:37:55.944Z,100380.33
2018-11-14T09:40:25.652Z,100372.70
2018-11-14T09:42:54.197Z,100370.73
2018-11-14T09:45:24.143Z,100379.47
2018-11-14T09:47:52.668Z,100384.58
2018-11-14T09:50:25.150Z,100376.47
2018-11-14T09:52:55.891Z,100373.88
2018-11-14T09:55:25.061Z,100371.83
2018-11-14T09:57:53.594Z,100373.28
2018-11-14T10:00:24.277Z,100374.15
2018-11-14T10:02:55.758Z,100371.33
2018-11-14T10:05:24.750Z,100180.05
2018-11-14T10:07:53.426Z,100369.39
2018-11-14T10:10:22.751Z,100370.00
2018-11-14T10:12:51.442Z,100370.82
2018-11-14T10:15:24.316Z,100365.77
2018-11-14T10:17:53.000Z,100360.25
2018-11-14T10:20:22.982Z,100353.38
2018-11-14T10:22:53.350Z,100347.83
2018-11-14T10:25:22.695Z,100341.81
2018-11-14T10:27:51.740Z,100342.00
2018-11-14T10:30:21.861Z,100335.78
2018-11-14T10:32:51.520Z,100339.59
2018-11-14T10:35:20.293Z,100327.26
2018-11-14T10:37:48.766Z,100337.36
2018-11-14T10:40:19.770Z,100335.09
2018-11-14T10:42:48.834Z,100334.52
2018-11-14T10:45:19.583Z,100328.36
2018-11-14T10:47:48.088Z,100323.51
2018-11-14T10:50:21.263Z,100320.20
2018-11-14T10:52:50.182Z,100315.66
2018-11-14T10:55:19.783Z,100307.48
2018-11-14T10:57:48.390Z,100306.91
2018-11-14T11:00:23.552Z,100314.58
2018-11-14T11:02:57.775Z,100312.33
2018-11-14T11:05:32.949Z,100302.27
2018-11-14T11:08:07.152Z,100302.69
2018-11-14T11:10:40.953Z,100298.02
2018-11-14T11:13:11.747Z,100295.66
2018-11-14T11:15:46.208Z,100296.91
2018-11-14T11:18:16.119Z,100290.95
2018-11-14T11:20:44.599Z,100287.54
2018-11-14T11:23:13.131Z,100284.87
2018-11-14T11:25:42.068Z,100282.36
2018-11-14T11:28:10.575Z,100287.14
2018-11-14T11:30:39.396Z,100284.59
2018-11-14T11:33:07.928Z,100284.27
2018-11-14T11:35:36.473Z,100280.28
2018-11-14T11:38:05.614Z,100276.41
2018-11-14T11:40:34.654Z,100267.64
2018-11-14T11:43:04.384Z,100270.77
2018-11-14T11:45:33.571Z,100263.75
2018-11-14T11:48:02.688Z,100261.50
2018-11-14T11:50:31.297Z,100266.12
2018-11-14T11:53:00.487Z,100254.50
2018-11-14T11:55:29.897Z,100257.03
2018-11-14T11:57:58.977Z,100253.56
2018-11-14T12:00:27.623Z,100262.06
2018-11-14T12:02:55.986Z,100256.31
2018-11-14T12:05:24.478Z,100249.59
2018-11-14T12:07:52.898Z,100247.71
2018-11-14T12:10:21.342Z,100246.47
2018-11-14T12:12:49.842Z,100242.77
2018-11-14T12:15:18.309Z,100232.66
2018-11-14T12:17:46.973Z,100232.91
2018-11-14T12:20:15.851Z,100220.09
2018-11-14T12:22:44.412Z,100223.02
2018-11-14T12:25:14.813Z,100222.55
2018-11-14T12:27:43.733Z,100216.00
2018-11-14T12:30:15.750Z,100208.02
2018-11-14T12:32:44.983Z,100208.30
2018-11-14T12:35:14.739Z,100201.41
2018-11-14T12:37:43.391Z,100201.81
2018-11-14T12:40:13.010Z,100202.46
2018-11-14T12:42:41.872Z,100192.92
2018-11-14T12:45:13.215Z,100192.06
2018-11-14T12:47:41.668Z,100189.76
2018-11-14T12:50:11.106Z,100188.41
2018-11-14T12:52:39.940Z,100181.84
2018-11-14T12:55:11.016Z,100185.63
2018-11-14T12:57:39.532Z,100188.24
2018-11-14T13:00:11.238Z,100184.27
2018-11-14T13:02:39.759Z,100188.45
2018-11-14T13:05:09.609Z,100186.86
2018-11-14T13:07:38.875Z,100193.95
2018-11-14T13:10:08.669Z,100191.68
2018-11-14T13:12:37.122Z,100192.33
2018-11-14T13:15:06.132Z,100199.54
2018-11-14T13:17:34.547Z,100193.47
2018-11-14T13:20:03.541Z,100200.66
2018-11-14T13:22:31.954Z,100207.09
2018-11-14T13:25:01.029Z,100213.78
2018-11-14T13:27:30.040Z,100208.09
2018-11-14T13:29:58.430Z,100210.56
2018-11-14T13:32:27.542Z,100213.32
2018-11-14T13:34:56.050Z,100208.30
2018-11-14T13:37:24.509Z,100209.82
2018-11-14T13:39:53.648Z,100216.89
2018-11-14T13:42:22.132Z,100211.69
2018-11-14T13:44:51.201Z,100214.44
2018-11-14T13:47:19.654Z,100218.20
2018-11-14T13:49:48.509Z,100213.31
2018-11-14T13:52:16.803Z,100214.35
2018-11-14T13:54:45.303Z,100213.78
2018-11-14T13:57:14.269Z,100215.47
2018-11-14T13:59:42.729Z,100206.87
2018-11-14T14:02:11.164Z,100212.75
2018-11-14T14:04:39.660Z,100207.19
2018-11-14T14:07:08.193Z,100205.38
2018-11-14T14:09:36.742Z,100212.00
2018-11-14T14:12:05.380Z,100208.32
2018-11-14T14:14:33.859Z,100212.00
2018-11-14T14:17:03.013Z,100202.81
2018-11-14T14:19:31.554Z,100207.83
2018-11-14T14:21:59.984Z,100202.91
2018-11-14T14:24:28.517Z,100212.47
2018-11-14T14:26:56.960Z,100213.31
2018-11-14T14:29:25.390Z,100209.64
2018-11-14T14:31:53.817Z,100209.53
2018-11-14T14:34:22.308Z,100203.02
2018-11-14T14:36:51.419Z,100215.31
2018-11-14T14:39:19.898Z,100212.17
2018-11-14T14:41:48.380Z,100208.50
2018-11-14T14:44:16.827Z,100209.04
2018-11-14T14:46:45.281Z,100206.97
2018-11-14T14:49:13.731Z,100216.05
2018-11-14T14:51:43.011Z,100217.00
2018-11-14T14:54:11.473Z,100221.89
2018-11-14T14:56:40.701Z,100213.41
2018-11-14T14:59:10.146Z,100214.25
2018-11-14T15:01:38.588Z,100216.23
2018-11-14T15:04:07.217Z,100213.30
2018-11-14T15:06:35.759Z,100209.41
2018-11-14T15:09:04.984Z,100204.13
2018-11-14T15:11:33.408Z,100211.52
2018-11-14T15:14:01.908Z,100214.16
2018-11-14T15:16:30.960Z,100213.95
2018-11-14T15:18:59.426Z,100214.70
2018-11-14T15:21:27.871Z,100218.09
2018-11-14T15:23:56.364Z,100218.95
2018-11-14T15:26:24.805Z,100217.59
2018-11-14T15:28:53.321Z,100216.76
2018-11-14T15:31:21.841Z,100212.50
2018-11-14T15:33:50.926Z,100213.91
2018-11-14T15:36:20.009Z,100211.63
2018-11-14T15:38:48.507Z,100217.08
2018-11-14T15:41:17.404Z,100217.01
2018-11-14T15:43:46.105Z,100215.43
2018-11-14T15:46:14.521Z,100220.72
2018-11-14T15:48:42.974Z,100220.71
2018-11-14T15:51:11.708Z,100219.98
2018-11-14T15:53:40.174Z,100218.30
2018-11-14T15:56:10.324Z,100209.45
2018-11-14T15:58:40.114Z,100211.39
2018-11-14T16:01:08.658Z,100213.99
2018-11-14T16:03:37.185Z,100213.70
2018-11-14T16:06:07.428Z,100208.05
2018-11-14T16:08:36.145Z,100204.45
2018-11-14T16:11:04.601Z,100209.94
2018-11-14T16:13:36.034Z,100209.88
2018-11-14T16:16:04.611Z,100203.70
2018-11-14T16:18:33.291Z,100207.65
2018-11-14T16:21:01.876Z,100213.53
2018-11-14T16:23:30.359Z,100211.33
2018-11-14T16:25:59.041Z,100209.48
2018-11-14T16:28:27.529Z,100220.18
2018-11-14T16:30:56.053Z,100217.54
2018-11-14T16:33:25.008Z,100214.33
2018-11-14T16:35:53.493Z,100221.63
2018-11-14T16:38:22.712Z,100221.61
2018-11-14T16:40:51.984Z,100216.03
2018-11-14T16:43:20.491Z,100223.95
2018-11-14T16:45:49.067Z,100219.05
2018-11-14T16:48:18.202Z,100211.51
2018-11-14T16:50:47.082Z,100212.53
2018-11-14T16:53:15.622Z,100217.34
2018-11-14T16:55:44.198Z,100214.64
2018-11-14T16:58:12.758Z,100215.34
2018-11-14T17:00:41.336Z,100203.77
2018-11-14T17:03:10.121Z,100202.53
2018-11-14T17:05:38.588Z,100212.58
2018-11-14T17:08:07.303Z,100212.78
2018-11-14T17:10:35.815Z,100215.15
2018-11-14T17:13:05.007Z,100216.68
2018-11-14T17:15:33.567Z,100219.58
2018-11-14T17:18:03.720Z,100219.24
2018-11-14T17:20:34.023Z,100220.56
2018-11-14T17:23:02.569Z,100218.83
2018-11-14T17:25:31.235Z,100220.36
2018-11-14T17:27:59.874Z,100213.95
2018-11-14T17:30:28.823Z,100217.34
2018-11-14T17:32:57.318Z,100218.01
2018-11-14T17:35:25.829Z,100214.07
2018-11-14T17:37:54.586Z,100212.95
2018-11-14T17:40:25.089Z,100206.04
2018-11-14T17:42:54.673Z,100205.09
2018-11-14T17:45:26.388Z,100207.64
2018-11-14T17:47:55.120Z,100206.99
2018-11-14T17:50:30.047Z,100200.66
2018-11-14T17:52:59.919Z,100204.52
2018-11-14T17:55:28.872Z,100201.79
2018-11-14T17:57:57.602Z,100205.56
2018-11-14T18:00:29.627Z,100201.20
2018-11-14T18:02:58.197Z,100200.73
2018-11-14T18:05:27.913Z,100208.39
2018-11-14T18:07:56.768Z,100209.42
2018-11-14T18:10:29.555Z,100212.07
2018-11-14T18:13:01.888Z,100208.00
2018-11-14T18:15:30.678Z,100206.89
2018-11-14T18:17:59.571Z,100207.92
2018-11-14T18:20:29.682Z,100209.70
2018-11-14T18:22:58.580Z,100206.59
2018-11-14T18:25:27.148Z,100204.22
2018-11-14T18:27:55.780Z,100205.56
2018-11-14T18:30:25.555Z,100200.19
2018-11-14T18:32:55.144Z,100196.09
2018-11-14T18:35:24.358Z,100197.80
2018-11-14T18:37:53.907Z,100195.91
2018-11-14T18:40:23.881Z,100198.75
2018-11-14T18:42:53.251Z,100199.14
2018-11-14T18:45:24.175Z,100195.24
2018-11-14T18:47:53.425Z,100193.14
2018-11-14T18:50:22.464Z,100188.09
2018-11-14T18:52:52.009Z,100185.53
2018-11-14T18:55:21.817Z,100189.42
2018-11-14T18:57:52.796Z,100186.02
2018-11-14T19:00:27.008Z,100192.72
2018-11-14T19:02:55.866Z,100195.56
2018-11-14T19:05:24.387Z,100189.28
2018-11-14T19:07:53.015Z,100189.52
2018-11-14T19:10:22.795Z,100188.39
2018-11-14T19:12:52.695Z,100181.00
2018-11-14T19:15:24.317Z,100183.09
2018-11-14T19:17:52.936Z,100181.58
2018-11-14T19:20:22.678Z,100175.08
2018-11-14T19:22:51.879Z,100175.55
2018-11-14T19:25:23.101Z,100181.31
2018-11-14T19:27:51.718Z,100183.27
2018-11-14T19:30:22.385Z,100184.50
2018-11-14T19:32:52.284Z,100184.02
2018-11-14T19:35:20.931Z,100182.26
2018-11-14T19:37:50.529Z,100177.22
2018-11-14T19:40:23.605Z,100173.83
2018-11-14T19:42:54.047Z,100177.48
2018-11-14T19:45:26.064Z,100172.48
2018-11-14T19:47:55.724Z,100171.63
2018-11-14T19:50:24.891Z,100167.45
2018-11-14T19:52:54.472Z,100172.41
2018-11-14T19:55:24.570Z,100173.83
2018-11-14T19:57:54.503Z,100166.92
2018-11-14T20:00:28.977Z,100168.05
2018-11-14T20:02:57.848Z,100170.59
2018-11-14T20:05:26.255Z,100165.30
2018-11-14T20:07:54.755Z,100168.52
2018-11-14T20:10:27.666Z,100167.86
2018-11-14T20:12:56.781Z,100180.15
2018-11-14T20:15:26.603Z,100166.84
2018-11-14T20:17:55.069Z,100168.59
2018-11-14T20:20:25.040Z,100170.81
2018-11-14T20:22:54.493Z,100169.35
2018-11-14T20:25:23.040Z,100171.45
2018-11-14T20:27:51.535Z,100172.52
2018-11-14T20:30:23.488Z,100174.41
2018-11-14T20:32:53.297Z,100175.92
2018-11-14T20:35:22.580Z,100175.43
2018-11-14T20:37:51.842Z,100169.59
2018-11-14T20:40:21.304Z,100171.69
2018-11-14T20:42:50.819Z,100170.45
2018-11-14T20:45:25.452Z,100174.80
2018-11-14T20:47:54.460Z,100176.48
2018-11-14T20:50:23.927Z,100164.86
2018-11-14T20:52:58.191Z,100171.66
2018-11-14T20:55:26.945Z,100172.24
2018-11-14T20:57:55.852Z,100168.16
2018-11-14T21:00:30.406Z,100167.89
2018-11-14T21:02:59.081Z,100167.78
2018-11-14T21:05:28.459Z,100163.74
2018-11-14T21:07:57.019Z,100165.23
2018-11-14T21:10:27.072Z,100164.30
2018-11-14T21:12:55.846Z,100155.05
2018-11-14T21:15:25.600Z,100162.69
2018-11-14T21:17:54.983Z,100153.23
2018-11-14T21:20:24.240Z,100155.41
2018-11-14T21:22:52.790Z,100151.56
2018-11-14T21:25:22.168Z,100150.06
2018-11-14T21:27:51.156Z,100149.19
2018-11-14T21:30:20.837Z,100148.73
2018-11-14T21:32:49.297Z,100145.05
2018-11-14T21:35:21.184Z,100146.74
2018-11-14T21:37:52.120Z,100144.95
2018-11-14T21:40:20.595Z,100145.34
2018-11-14T21:42:49.090Z,100143.33
2018-11-14T21:45:19.150Z,100136.64
2018-11-14T21:47:52.672Z,100142.80
2018-11-14T21:50:22.106Z,100136.56
2018-11-14T21:52:52.895Z,100134.39
2018-11-14T21:55:21.478Z,100131.91
2018-11-14T21:57:50.126Z,100138.34
2018-11-14T22:00:20.307Z,100138.63
2018-11-14T22:02:51.251Z,100134.58
2018-11-14T22:05:19.716Z,100135.31
2018-11-14T22:07:48.165Z,100140.67
2018-11-14T22:10:17.852Z,100145.78
2018-11-14T22:12:46.850Z,100141.28
2018-11-14T22:15:16.378Z,100135.98
2018-11-14T22:17:44.767Z,100146.37
2018-11-14T22:20:14.311Z,100142.40
2018-11-14T22:22:43.488Z,100142.40
2018-11-14T22:25:13.197Z,100150.70
2018-11-14T22:27:41.816Z,100150.01
2018-11-14T22:30:12.123Z,100142.57
2018-11-14T22:32:41.341Z,100146.94
2018-11-14T22:35:11.429Z,100148.60
2018-11-14T22:37:40.085Z,100148.89
2018-11-14T22:40:12.017Z,100147.36
2018-11-14T22:42:40.540Z,100150.59
2018-11-14T22:45:11.692Z,100148.43
2018-11-14T22:47:40.928Z,100142.02
2018-11-14T22:50:11.052Z,100141.45
2018-11-14T22:52:40.384Z,100138.81
2018-11-14T22:55:09.764Z,100146.36
2018-11-14T22:57:38.524Z,100146.91
2018-11-14T23:00:15.410Z,100145.05
2018-11-14T23:02:47.403Z,100145.41
2018-11-14T23:05:17.480Z,100149.63
2018-11-14T23:07:47.626Z,100146.41
2018-11-14T23:10:16.300Z,100137.45
2018-11-14T23:12:45.904Z,100143.61
2018-11-14T23:15:14.475Z,100142.77
2018-11-14T23:17:42.883Z,100143.42
2018-11-14T23:20:13.000Z,100147.31
2018-11-14T23:22:42.675Z,100143.52
2018-11-14T23:25:11.825Z,100150.33
2018-11-14T23:27:41.895Z,100149.47
2018-11-14T23:30:11.747Z,100150.41
2018-11-14T23:32:41.164Z,100147.22
2018-11-14T23:35:15.461Z,100146.56
2018-11-14T23:37:45.123Z,100147.78
2018-11-14T23:40:13.660Z,100149.20
2018-11-14T23:42:42.533Z,100144.20
2018-11-14T23:45:15.362Z,100141.47
2018-11-14T23:47:44.704Z,100143.83
2018-11-14T23:50:14.952Z,100140.50
2018-11-14T23:52:45.364Z,100143.17
2018-11-14T23:55:14.319Z,100140.52
2018-11-14T23:57:42.865Z,100136.54
